createdAt,value
2018-07-04T00:02:06.239Z,18.60
2018-07-04T00:04:49.780Z,18.50
2018-07-04T00:07:29.221Z,18.50
2018-07-04T00:12:51.006Z,18.50
2018-07-04T00:15:31.100Z,18.50
2018-07-04T00:18:11.355Z,18.50
2018-07-04T00:20:50.924Z,18.50
2018-07-04T00:23:35.113Z,18.50
2018-07-04T00:26:18.880Z,18.50
2018-07-04T00:31:55.574Z,18.40
2018-07-04T00:34:35.984Z,18.40
2018-07-04T00:40:01.345Z,18.40
2018-07-04T00:42:45.270Z,18.40
2018-07-04T00:45:25.589Z,18.40
2018-07-04T00:48:06.115Z,18.40
2018-07-04T00:50:46.883Z,18.40
2018-07-04T00:53:27.381Z,18.40
2018-07-04T00:56:07.711Z,18.40
2018-07-04T00:58:48.397Z,18.40
2018-07-04T01:01:41.425Z,18.40
2018-07-04T01:04:21.510Z,18.40
2018-07-04T01:07:01.940Z,18.30
2018-07-04T01:09:41.764Z,18.30
2018-07-04T01:12:21.967Z,18.30
2018-07-04T01:15:03.382Z,18.20
2018-07-04T01:17:45.591Z,18.20
2018-07-04T01:20:25.502Z,18.20
2018-07-04T01:23:11.432Z,18.10
2018-07-04T01:25:59.354Z,18.10
2018-07-04T01:28:44.669Z,18.10
2018-07-04T01:31:26.769Z,18.10
2018-07-04T01:34:08.685Z,18.00
2018-07-04T01:36:49.372Z,18.00
2018-07-04T01:39:31.842Z,18.00
2018-07-04T01:42:12.444Z,18.00
2018-07-04T01:47:27.141Z,18.00
2018-07-04T01:50:10.062Z,18.00
2018-07-04T01:52:54.450Z,17.90
2018-07-04T01:55:36.554Z,17.90
2018-07-04T01:58:16.635Z,17.90
2018-07-04T02:01:00.443Z,17.90
2018-07-04T02:03:40.532Z,17.90
2018-07-04T02:06:21.716Z,17.90
2018-07-04T02:09:03.516Z,17.90
2018-07-04T02:14:54.555Z,17.80
2018-07-04T02:17:34.449Z,17.80
2018-07-04T02:20:14.224Z,17.80
2018-07-04T02:22:54.176Z,17.80
2018-07-04T02:28:22.255Z,17.80
2018-07-04T02:33:55.399Z,17.80
2018-07-04T02:36:36.007Z,17.80
2018-07-04T02:39:17.660Z,17.80
2018-07-04T02:41:57.892Z,17.80
2018-07-04T02:44:41.342Z,17.80
2018-07-04T02:47:27.437Z,17.80
2018-07-04T02:50:11.299Z,17.80
2018-07-04T02:52:51.371Z,17.80
2018-07-04T02:55:35.660Z,17.80
2018-07-04T02:58:15.334Z,17.80
2018-07-04T03:03:50.502Z,17.80
2018-07-04T03:06:30.486Z,17.80
2018-07-04T03:12:09.868Z,17.80
2018-07-04T03:14:49.411Z,17.80
2018-07-04T03:17:31.160Z,17.80
2018-07-04T03:20:10.923Z,17.80
2018-07-04T03:22:51.175Z,17.80
2018-07-04T03:25:32.474Z,17.80
2018-07-04T03:28:14.763Z,17.90
2018-07-04T03:31:05.375Z,17.90
2018-07-04T03:33:45.317Z,17.80
2018-07-04T03:36:25.580Z,17.80
2018-07-04T03:39:06.973Z,17.80
2018-07-04T03:41:48.639Z,17.90
2018-07-04T03:44:28.633Z,17.90
2018-07-04T03:49:42.995Z,17.90
2018-07-04T03:52:28.338Z,17.90
2018-07-04T03:55:08.167Z,18.00
2018-07-04T03:57:47.840Z,18.10
2018-07-04T04:00:33.187Z,18.30
2018-07-04T04:03:14.670Z,18.40
2018-07-04T04:05:54.942Z,18.60
2018-07-04T04:08:35.482Z,18.70
2018-07-04T04:11:24.043Z,18.80
2018-07-04T04:14:03.821Z,19.00
2018-07-04T04:16:43.616Z,19.10
2018-07-04T04:19:32.002Z,19.00
2018-07-04T04:22:12.949Z,18.90
2018-07-04T04:24:53.746Z,18.90
2018-07-04T04:27:34.642Z,18.80
2018-07-04T04:30:14.315Z,18.80
2018-07-04T04:32:54.000Z,18.70
2018-07-04T04:35:34.251Z,18.80
2018-07-04T04:38:14.298Z,18.70
2018-07-04T04:41:00.142Z,18.80
2018-07-04T04:43:45.595Z,18.70
2018-07-04T04:46:26.642Z,18.70
2018-07-04T04:49:08.317Z,18.70
2018-07-04T04:51:53.373Z,18.70
2018-07-04T04:54:33.231Z,18.70
2018-07-04T04:57:13.416Z,18.70
2018-07-04T04:59:54.091Z,18.60
2018-07-04T05:02:34.200Z,18.60
2018-07-04T05:05:14.957Z,18.60
2018-07-04T05:07:54.713Z,18.60
2018-07-04T05:10:35.590Z,18.70
2018-07-04T05:13:16.472Z,18.70
2018-07-04T05:15:57.725Z,18.70
2018-07-04T05:18:37.810Z,18.70
2018-07-04T05:21:20.447Z,18.80
2018-07-04T05:24:01.448Z,18.80
2018-07-04T05:26:47.762Z,18.90
2018-07-04T05:29:32.937Z,18.80
2018-07-04T05:32:32.869Z,18.90
2018-07-04T05:35:14.275Z,18.90
2018-07-04T05:37:54.555Z,18.90
2018-07-04T05:41:00.227Z,18.90
2018-07-04T05:43:41.494Z,19.00
2018-07-04T05:49:03.802Z,19.10
2018-07-04T05:54:51.575Z,19.10
2018-07-04T05:57:33.844Z,19.20
2018-07-04T06:00:18.182Z,19.20
2018-07-04T06:02:58.106Z,19.30
2018-07-04T06:05:41.161Z,19.30
2018-07-04T06:08:21.627Z,19.40
2018-07-04T06:13:44.171Z,19.60
2018-07-04T06:18:57.772Z,19.80
2018-07-04T06:21:37.603Z,19.90
2018-07-04T06:24:17.053Z,19.90
2018-07-04T06:26:58.807Z,20.00
2018-07-04T06:29:38.867Z,20.10
2018-07-04T06:32:24.306Z,20.20
2018-07-04T06:35:24.243Z,20.20
2018-07-04T06:37:51.531Z,20.30
2018-07-04T06:40:19.740Z,20.10
2018-07-04T06:42:47.049Z,20.10
2018-07-04T06:47:42.228Z,20.10
2018-07-04T06:50:09.599Z,20.00
2018-07-04T06:52:37.159Z,20.10
2018-07-04T06:55:09.616Z,20.10
2018-07-04T06:57:37.791Z,20.20
2018-07-04T07:00:11.141Z,20.20
2018-07-04T07:02:38.379Z,20.30
2018-07-04T07:05:22.671Z,20.20
2018-07-04T07:08:03.287Z,20.30
2018-07-04T07:13:29.999Z,20.40
2018-07-04T07:16:09.574Z,20.40
2018-07-04T07:18:49.670Z,20.40
2018-07-04T07:21:37.728Z,20.50
2018-07-04T07:24:19.548Z,20.50
2018-07-04T07:26:59.347Z,20.50
2018-07-04T07:29:39.365Z,20.60
2018-07-04T07:32:19.176Z,20.70
2018-07-04T07:34:59.176Z,20.80
2018-07-04T07:37:38.912Z,20.90
2018-07-04T07:40:19.549Z,20.90
2018-07-04T07:43:08.219Z,20.90
2018-07-04T07:45:47.826Z,20.90
2018-07-04T07:48:29.876Z,21.00
2018-07-04T07:51:09.747Z,21.10
2018-07-04T07:53:49.569Z,21.20
2018-07-04T07:56:29.320Z,21.30
2018-07-04T07:59:13.423Z,21.30
2018-07-04T08:01:57.026Z,21.30
2018-07-04T08:04:37.518Z,21.40
2018-07-04T08:07:17.788Z,21.50
2018-07-04T08:09:57.926Z,21.60
2018-07-04T08:12:38.599Z,21.70
2018-07-04T08:15:18.966Z,21.90
2018-07-04T08:17:59.018Z,21.90
2018-07-04T08:20:38.812Z,22.00
2018-07-04T08:23:19.319Z,22.10
2018-07-04T08:25:59.357Z,22.20
2018-07-04T08:28:39.094Z,22.20
2018-07-04T08:31:19.050Z,22.20
2018-07-04T08:33:59.039Z,22.30
2018-07-04T08:36:39.807Z,22.30
2018-07-04T08:39:19.514Z,22.40
2018-07-04T08:41:59.758Z,22.50
2018-07-04T08:44:39.910Z,22.50
2018-07-04T08:52:39.295Z,22.60
2018-07-04T08:55:20.237Z,22.60
2018-07-04T08:58:01.112Z,22.70
2018-07-04T09:00:41.779Z,22.70
2018-07-04T09:03:21.818Z,22.70
2018-07-04T09:06:02.802Z,22.80
2018-07-04T09:08:42.650Z,22.90
2018-07-04T09:11:34.107Z,23.00
2018-07-04T09:14:13.690Z,23.00
2018-07-04T09:19:42.146Z,23.10
2018-07-04T09:22:22.803Z,23.10
2018-07-04T09:25:02.966Z,23.20
2018-07-04T09:27:44.343Z,23.20
2018-07-04T09:30:24.528Z,23.20
2018-07-04T09:33:04.682Z,23.30
2018-07-04T09:35:44.983Z,23.40
2018-07-04T09:38:25.122Z,23.50
2018-07-04T09:41:06.001Z,23.60
2018-07-04T09:43:51.248Z,23.60
2018-07-04T09:46:41.063Z,23.70
2018-07-04T09:49:20.464Z,23.80
2018-07-04T09:52:00.409Z,23.90
2018-07-04T09:54:40.316Z,23.90
2018-07-04T09:57:20.766Z,24.00
2018-07-04T10:00:00.536Z,24.00
2018-07-04T10:02:40.206Z,24.10
2018-07-04T10:05:20.442Z,24.10
2018-07-04T10:10:34.268Z,24.20
2018-07-04T10:13:14.037Z,24.30
2018-07-04T10:15:55.035Z,24.40
2018-07-04T10:18:36.125Z,24.30
2018-07-04T10:23:53.367Z,24.30
2018-07-04T10:26:33.111Z,24.40
2018-07-04T10:29:13.597Z,24.60
2018-07-04T10:31:53.275Z,24.70
2018-07-04T10:34:34.564Z,24.80
2018-07-04T10:37:14.177Z,24.80
2018-07-04T10:39:54.340Z,24.90
2018-07-04T10:42:34.801Z,24.90
2018-07-04T10:45:14.724Z,24.90
2018-07-04T10:47:55.384Z,24.90
2018-07-04T10:50:34.979Z,24.90
2018-07-04T10:53:15.403Z,24.90
2018-07-04T10:55:55.752Z,25.00
2018-07-04T10:58:36.546Z,25.00
2018-07-04T11:01:16.293Z,25.20
2018-07-04T11:03:56.022Z,25.20
2018-07-04T11:06:35.815Z,25.20
2018-07-04T11:11:54.835Z,25.40
2018-07-04T11:14:34.677Z,25.40
2018-07-04T11:17:14.366Z,25.40
2018-07-04T11:19:53.987Z,25.50
2018-07-04T11:22:44.813Z,25.50
2018-07-04T11:25:25.538Z,25.50
2018-07-04T11:28:10.329Z,25.60
2018-07-04T11:30:50.806Z,25.60
2018-07-04T11:33:39.492Z,25.70
2018-07-04T11:36:19.729Z,25.70
2018-07-04T11:39:01.158Z,25.70
2018-07-04T11:41:46.279Z,25.80
2018-07-04T11:44:25.983Z,25.80
2018-07-04T11:46:54.450Z,25.90
2018-07-04T11:49:30.518Z,25.90
2018-07-04T11:52:03.465Z,26.00
2018-07-04T11:54:31.592Z,26.00
2018-07-04T11:57:01.595Z,26.10
2018-07-04T11:59:28.948Z,26.20
2018-07-04T12:04:47.494Z,26.40
2018-07-04T12:07:22.831Z,26.40
2018-07-04T12:09:51.218Z,26.40
2018-07-04T12:12:19.582Z,26.40
2018-07-04T12:14:49.345Z,26.40
2018-07-04T12:17:17.398Z,26.40
2018-07-04T12:19:52.552Z,26.30
2018-07-04T12:25:06.739Z,26.30
2018-07-04T12:27:37.686Z,26.30
2018-07-04T12:35:11.968Z,26.20
2018-07-04T12:40:20.094Z,26.10
2018-07-04T12:42:50.141Z,26.10
2018-07-04T12:45:18.212Z,26.20
2018-07-04T12:50:28.271Z,26.20
2018-07-04T12:53:06.818Z,26.30
2018-07-04T12:55:46.774Z,26.30
2018-07-04T12:58:26.666Z,26.40
2018-07-04T13:01:06.798Z,26.50
2018-07-04T13:20:55.728Z,26.20
2018-07-04T13:23:38.081Z,26.20
2018-07-04T13:28:52.620Z,26.20
2018-07-04T13:31:32.984Z,26.20
2018-07-04T13:34:12.851Z,26.20
2018-07-04T13:36:53.027Z,26.10
2018-07-04T13:39:34.164Z,26.10
2018-07-04T13:42:25.794Z,26.10
2018-07-04T13:47:45.896Z,26.20
2018-07-04T13:53:00.405Z,26.20
2018-07-04T13:55:40.518Z,26.20
2018-07-04T13:58:22.589Z,26.20
2018-07-04T14:01:04.100Z,26.20
2018-07-04T14:06:20.722Z,26.10
2018-07-04T14:11:45.587Z,26.20
2018-07-04T14:14:27.055Z,26.10
2018-07-04T14:19:48.238Z,26.10
2018-07-04T14:22:28.510Z,26.10
2018-07-04T14:27:58.428Z,26.10
2018-07-04T14:30:40.342Z,26.10
2018-07-04T14:33:22.806Z,26.10
2018-07-04T14:36:02.605Z,26.10
2018-07-04T14:38:43.572Z,26.10
2018-07-04T14:41:29.311Z,26.20
2018-07-04T14:44:09.555Z,26.20
2018-07-04T14:46:50.277Z,26.20
2018-07-04T14:49:33.208Z,26.50
2018-07-04T14:52:16.938Z,27.70
2018-07-04T14:54:57.562Z,29.30
2018-07-04T15:00:24.665Z,31.50
2018-07-04T15:03:09.220Z,32.20
2018-07-04T15:05:50.051Z,32.80
2018-07-04T15:08:30.998Z,33.50
2018-07-04T15:11:23.790Z,33.90
2018-07-04T15:14:08.169Z,34.50
2018-07-04T15:16:50.546Z,35.30
2018-07-04T15:19:38.081Z,36.20
2018-07-04T15:27:57.116Z,38.20
2018-07-04T15:30:38.563Z,38.50
2018-07-04T15:33:26.200Z,38.50
2018-07-04T15:36:06.183Z,38.40
2018-07-04T15:38:45.797Z,38.60
2018-07-04T15:41:25.857Z,38.60
2018-07-04T15:44:06.609Z,38.70
2018-07-04T15:46:50.470Z,38.70
2018-07-04T15:52:07.712Z,38.70
2018-07-04T15:54:47.492Z,38.80
2018-07-04T15:57:30.332Z,38.70
2018-07-04T16:00:10.239Z,38.50
2018-07-04T16:02:50.100Z,38.60
2018-07-04T16:05:33.941Z,38.90
2018-07-04T16:08:21.273Z,39.20
2018-07-04T16:11:02.712Z,39.20
2018-07-04T16:13:42.990Z,38.90
2018-07-04T16:16:24.370Z,38.50
2018-07-04T16:19:05.329Z,38.40
2018-07-04T16:21:45.186Z,38.20
2018-07-04T16:24:25.863Z,37.80
2018-07-04T16:27:05.926Z,37.50
2018-07-04T16:29:46.667Z,37.30
2018-07-04T16:32:32.080Z,37.20
2018-07-04T16:35:12.052Z,37.20
2018-07-04T16:37:52.674Z,37.20
2018-07-04T16:43:08.987Z,36.70
2018-07-04T16:45:52.997Z,35.50
2018-07-04T16:48:33.710Z,33.90
2018-07-04T16:51:15.942Z,32.40
2018-07-04T16:56:30.749Z,30.10
2018-07-04T16:59:10.637Z,29.40
2018-07-04T17:01:56.295Z,28.80
2018-07-04T17:04:36.036Z,28.30
2018-07-04T17:07:18.651Z,27.90
2018-07-04T17:10:01.414Z,27.60
2018-07-04T17:12:41.339Z,27.30
2018-07-04T17:15:23.302Z,27.10
2018-07-04T17:18:08.646Z,26.90
2018-07-04T17:20:53.235Z,26.60
2018-07-04T17:23:34.268Z,26.30
2018-07-04T17:26:14.394Z,26.00
2018-07-04T17:28:57.926Z,25.80
2018-07-04T17:34:15.019Z,25.50
2018-07-04T17:36:55.299Z,25.40
2018-07-04T17:39:35.179Z,25.20
2018-07-04T17:42:20.009Z,25.00
2018-07-04T17:47:57.503Z,24.60
2018-07-04T17:50:38.196Z,24.50
2018-07-04T17:53:21.076Z,24.30
2018-07-04T17:56:11.270Z,24.30
2018-07-04T17:58:51.863Z,24.20
2018-07-04T18:01:44.646Z,24.10
2018-07-04T18:04:29.793Z,24.10
2018-07-04T18:07:10.254Z,24.00
2018-07-04T18:09:52.540Z,23.90
2018-07-04T18:12:39.539Z,23.70
2018-07-04T18:15:20.121Z,23.70
2018-07-04T18:18:01.309Z,23.60
2018-07-04T18:26:18.996Z,23.40
2018-07-04T18:29:02.800Z,23.30
2018-07-04T18:31:44.222Z,23.30
2018-07-04T18:34:29.922Z,23.20
2018-07-04T18:37:09.961Z,23.10
2018-07-04T18:39:50.244Z,23.00
2018-07-04T18:42:41.331Z,22.90
2018-07-04T18:48:09.507Z,22.70
2018-07-04T18:53:38.302Z,22.60
2018-07-04T18:56:18.512Z,22.50
2018-07-04T18:58:59.154Z,22.40
2018-07-04T19:04:16.500Z,22.30
2018-07-04T19:09:53.003Z,22.10
2018-07-04T19:12:47.781Z,22.00
2018-07-04T19:15:33.739Z,21.90
2018-07-04T19:21:07.854Z,21.80
2018-07-04T19:26:37.466Z,21.60
2018-07-04T19:29:23.426Z,21.60
2018-07-04T19:32:08.132Z,21.50
2018-07-04T19:34:58.575Z,21.40
2018-07-04T19:37:38.270Z,21.40
2018-07-04T19:40:17.995Z,21.40
2018-07-04T19:43:09.091Z,21.40
2018-07-04T19:45:50.120Z,21.30
2018-07-04T19:48:30.409Z,21.20
2018-07-04T19:51:10.550Z,21.20
2018-07-04T19:53:56.451Z,21.10
2018-07-04T19:59:12.231Z,21.00
2018-07-04T20:02:02.805Z,21.00
2018-07-04T20:04:43.151Z,20.90
2018-07-04T20:07:26.637Z,20.80
2018-07-04T20:10:07.944Z,20.80
2018-07-04T20:12:49.377Z,20.70
2018-07-04T20:18:30.628Z,20.60
2018-07-04T20:21:10.651Z,20.60
2018-07-04T20:23:53.055Z,20.50
2018-07-04T20:26:36.767Z,20.50
2018-07-04T20:29:21.576Z,20.50
2018-07-04T20:32:01.778Z,20.40
2018-07-04T20:34:41.425Z,20.40
2018-07-04T20:37:21.427Z,20.40
2018-07-04T20:40:01.805Z,20.30
2018-07-04T20:42:41.279Z,20.30
2018-07-04T20:45:21.171Z,20.30
2018-07-04T20:48:02.258Z,20.20
2018-07-04T20:50:45.800Z,20.20
2018-07-04T20:53:25.667Z,20.20
2018-07-04T20:56:06.261Z,20.10
2018-07-04T20:58:46.489Z,20.10
2018-07-04T21:01:26.951Z,20.00
2018-07-04T21:04:06.839Z,20.00
2018-07-04T21:06:46.479Z,20.00
2018-07-04T21:09:25.943Z,20.00
2018-07-04T21:12:15.823Z,19.90
2018-07-04T21:14:55.876Z,19.90
2018-07-04T21:17:35.805Z,20.00
2018-07-04T21:20:15.595Z,19.90
2018-07-04T21:22:55.558Z,19.90
2018-07-04T21:25:35.384Z,19.80
2018-07-04T21:28:14.962Z,19.80
2018-07-04T21:30:54.836Z,19.80
2018-07-04T21:33:34.499Z,19.70
2018-07-04T21:36:19.242Z,19.70
2018-07-04T21:39:01.100Z,19.70
2018-07-04T21:41:42.179Z,19.60
2018-07-04T21:44:21.959Z,19.60
2018-07-04T21:47:02.494Z,19.60
2018-07-04T21:49:42.139Z,19.50
2018-07-04T21:52:26.776Z,19.50
2018-07-04T21:55:07.938Z,19.50
2018-07-04T21:57:47.530Z,19.40
2018-07-04T22:00:27.630Z,19.30
2018-07-04T22:03:08.660Z,19.30
2018-07-04T22:05:48.237Z,19.30
2018-07-04T22:08:28.638Z,19.30
2018-07-04T22:11:09.499Z,19.20
2018-07-04T22:14:02.793Z,19.20
2018-07-04T22:16:43.506Z,19.20
2018-07-04T22:19:24.474Z,19.20
2018-07-04T22:22:11.426Z,19.20
2018-07-04T22:24:51.765Z,19.10
2018-07-04T22:27:32.417Z,19.10
2018-07-04T22:33:04.638Z,19.10
2018-07-04T22:35:46.771Z,19.00
2018-07-04T22:38:27.335Z,19.00
2018-07-04T22:41:07.247Z,19.00
2018-07-04T22:43:47.142Z,19.00
2018-07-04T22:46:26.806Z,18.90
2018-07-04T22:49:06.755Z,18.90
2018-07-04T22:51:46.452Z,18.90
2018-07-04T22:54:26.088Z,18.90
2018-07-04T22:57:09.982Z,18.80
2018-07-04T22:59:49.598Z,18.80
2018-07-04T23:02:29.741Z,18.80
2018-07-04T23:05:09.359Z,18.80
2018-07-04T23:07:48.975Z,18.70
2018-07-04T23:10:28.582Z,18.70
2018-07-04T23:13:08.557Z,18.70
2018-07-04T23:15:48.523Z,18.60
2018-07-04T23:18:28.219Z,18.60
2018-07-04T23:21:07.787Z,18.60
2018-07-04T23:23:47.930Z,18.50
2018-07-04T23:26:27.866Z,18.50
2018-07-04T23:29:07.432Z,18.50
2018-07-04T23:31:47.148Z,18.50
2018-07-04T23:34:26.590Z,18.40
2018-07-04T23:37:06.063Z,18.40
2018-07-04T23:42:19.475Z,18.30
2018-07-04T23:44:59.382Z,18.30
2018-07-04T23:47:38.922Z,18.20
2018-07-04T23:50:19.617Z,18.20
2018-07-04T23:56:24.964Z,18.20
2018-07-04T23:59:04.358Z,18.20
